sensor_id;sensor_type;location;lat;lon;timestamp;P1;durP1;ratioP1;P2;durP2;ratioP2
81908;SDS011;71372;43.514;1.512;2024-03-25T00:02:14;6.57;;;4.70;;
81908;SDS011;71372;43.514;1.512;2024-03-25T00:04:40;6.35;;;4.28;;
81908;SDS011;71372;43.514;1.512;2024-03-25T00:07:06;9.02;;;4.38;;
81908;SDS011;71372;43.514;1.512;2024-03-25T00:09:32;7.90;;;4.25;;
81908;SDS011;71372;43.514;1.512;2024-03-25T00:11:58;10.05;;;5.15;;
81908;SDS011;71372;43.514;1.512;2024-03-25T00:14:24;11.02;;;5.88;;
81908;SDS011;71372;43.514;1.512;2024-03-25T00:16:50;9.65;;;5.88;;
81908;SDS011;71372;43.514;1.512;2024-03-25T00:19:16;10.18;;;5.50;;
81908;SDS011;71372;43.514;1.512;2024-03-25T00:21:42;7.63;;;5.00;;
81908;SDS011;71372;43.514;1.512;2024-03-25T00:24:08;7.53;;;5.20;;
81908;SDS011;71372;43.514;1.512;2024-03-25T00:26:34;8.25;;;4.70;;
81908;SDS011;71372;43.514;1.512;2024-03-25T00:29:00;6.45;;;4.03;;
81908;SDS011;71372;43.514;1.512;2024-03-25T00:31:26;7.00;;;4.63;;
81908;SDS011;71372;43.514;1.512;2024-03-25T00:33:52;9.27;;;5.22;;
81908;SDS011;71372;43.514;1.512;2024-03-25T00:36:18;10.18;;;4.78;;
81908;SDS011;71372;43.514;1.512;2024-03-25T00:38:44;7.53;;;4.15;;
81908;SDS011;71372;43.514;1.512;2024-03-25T00:41:10;5.82;;;4.40;;
81908;SDS011;71372;43.514;1.512;2024-03-25T00:43:36;6.68;;;3.95;;
81908;SDS011;71372;43.514;1.512;2024-03-25T00:46:02;8.65;;;5.03;;
81908;SDS011;71372;43.514;1.512;2024-03-25T00:48:28;9.02;;;4.82;;
81908;SDS011;71372;43.514;1.512;2024-03-25T00:50:54;9.48;;;4.57;;
81908;SDS011;71372;43.514;1.512;2024-03-25T00:53:20;8.65;;;4.63;;
81908;SDS011;71372;43.514;1.512;2024-03-25T00:55:45;6.55;;;4.00;;
81908;SDS011;71372;43.514;1.512;2024-03-25T00:58:11;6.90;;;3.58;;
81908;SDS011;71372;43.514;1.512;2024-03-25T01:00:37;8.30;;;3.67;;
81908;SDS011;71372;43.514;1.512;2024-03-25T01:03:03;5.43;;;3.40;;
81908;SDS011;71372;43.514;1.512;2024-03-25T01:05:30;8.38;;;3.42;;
81908;SDS011;71372;43.514;1.512;2024-03-25T01:07:55;6.10;;;3.60;;
81908;SDS011;71372;43.514;1.512;2024-03-25T01:10:21;8.93;;;3.75;;
81908;SDS011;71372;43.514;1.512;2024-03-25T01:12:47;6.85;;;3.53;;
81908;SDS011;71372;43.514;1.512;2024-03-25T01:15:13;6.28;;;3.70;;
81908;SDS011;71372;43.514;1.512;2024-03-25T01:17:39;4.85;;;3.55;;
81908;SDS011;71372;43.514;1.512;2024-03-25T01:20:05;7.93;;;4.00;;
81908;SDS011;71372;43.514;1.512;2024-03-25T01:22:31;9.40;;;4.40;;
81908;SDS011;71372;43.514;1.512;2024-03-25T01:24:57;10.10;;;4.78;;
81908;SDS011;71372;43.514;1.512;2024-03-25T01:27:23;7.63;;;4.72;;
81908;SDS011;71372;43.514;1.512;2024-03-25T01:29:49;9.05;;;4.68;;
81908;SDS011;71372;43.514;1.512;2024-03-25T01:32:15;9.85;;;4.63;;
81908;SDS011;71372;43.514;1.512;2024-03-25T01:34:41;8.68;;;5.20;;
81908;SDS011;71372;43.514;1.512;2024-03-25T01:37:07;7.90;;;4.40;;
81908;SDS011;71372;43.514;1.512;2024-03-25T01:39:33;8.35;;;4.18;;
81908;SDS011;71372;43.514;1.512;2024-03-25T01:41:59;7.03;;;3.85;;
81908;SDS011;71372;43.514;1.512;2024-03-25T01:44:25;6.57;;;3.83;;
81908;SDS011;71372;43.514;1.512;2024-03-25T01:46:50;7.65;;;4.45;;
81908;SDS011;71372;43.514;1.512;2024-03-25T01:49:18;6.25;;;3.78;;
81908;SDS011;71372;43.514;1.512;2024-03-25T01:51:45;5.85;;;3.63;;
81908;SDS011;71372;43.514;1.512;2024-03-25T01:54:11;10.80;;;4.28;;
81908;SDS011;71372;43.514;1.512;2024-03-25T01:56:41;7.95;;;3.47;;
81908;SDS011;71372;43.514;1.512;2024-03-25T01:59:09;7.30;;;3.75;;
81908;SDS011;71372;43.514;1.512;2024-03-25T02:01:36;6.68;;;4.00;;
81908;SDS011;71372;43.514;1.512;2024-03-25T02:04:02;7.47;;;3.50;;
81908;SDS011;71372;43.514;1.512;2024-03-25T02:06:28;6.15;;;3.25;;
81908;SDS011;71372;43.514;1.512;2024-03-25T02:08:56;5.15;;;3.30;;
81908;SDS011;71372;43.514;1.512;2024-03-25T02:11:23;5.60;;;3.53;;
81908;SDS011;71372;43.514;1.512;2024-03-25T02:13:50;6.43;;;3.50;;
81908;SDS011;71372;43.514;1.512;2024-03-25T02:16:17;7.07;;;3.35;;
81908;SDS011;71372;43.514;1.512;2024-03-25T02:18:43;8.80;;;3.58;;
81908;SDS011;71372;43.514;1.512;2024-03-25T02:21:09;5.18;;;3.45;;
81908;SDS011;71372;43.514;1.512;2024-03-25T02:23:36;5.95;;;3.10;;
81908;SDS011;71372;43.514;1.512;2024-03-25T02:26:05;6.35;;;3.50;;
81908;SDS011;71372;43.514;1.512;2024-03-25T02:28:31;8.07;;;3.42;;
81908;SDS011;71372;43.514;1.512;2024-03-25T02:30:57;5.47;;;3.08;;
81908;SDS011;71372;43.514;1.512;2024-03-25T02:33:23;9.10;;;3.80;;
81908;SDS011;71372;43.514;1.512;2024-03-25T02:35:49;9.93;;;4.50;;
81908;SDS011;71372;43.514;1.512;2024-03-25T02:38:15;10.43;;;4.50;;
81908;SDS011;71372;43.514;1.512;2024-03-25T02:40:43;9.35;;;4.32;;
81908;SDS011;71372;43.514;1.512;2024-03-25T02:43:10;8.93;;;4.28;;
81908;SDS011;71372;43.514;1.512;2024-03-25T02:45:36;10.82;;;4.28;;
81908;SDS011;71372;43.514;1.512;2024-03-25T02:48:02;13.73;;;6.07;;
81908;SDS011;71372;43.514;1.512;2024-03-25T02:50:29;19.45;;;7.40;;
81908;SDS011;71372;43.514;1.512;2024-03-25T02:52:54;33.20;;;11.00;;
81908;SDS011;71372;43.514;1.512;2024-03-25T02:55:20;36.38;;;12.57;;
81908;SDS011;71372;43.514;1.512;2024-03-25T02:57:46;35.75;;;12.80;;
81908;SDS011;71372;43.514;1.512;2024-03-25T03:00:12;35.95;;;12.23;;
81908;SDS011;71372;43.514;1.512;2024-03-25T03:02:39;30.30;;;11.75;;
81908;SDS011;71372;43.514;1.512;2024-03-25T03:05:05;15.32;;;6.85;;
81908;SDS011;71372;43.514;1.512;2024-03-25T03:07:31;15.38;;;6.68;;
81908;SDS011;71372;43.514;1.512;2024-03-25T03:09:57;12.07;;;5.72;;
81908;SDS011;71372;43.514;1.512;2024-03-25T03:12:23;11.15;;;6.40;;
81908;SDS011;71372;43.514;1.512;2024-03-25T03:14:49;8.82;;;5.28;;
81908;SDS011;71372;43.514;1.512;2024-03-25T03:17:14;12.55;;;6.30;;
81908;SDS011;71372;43.514;1.512;2024-03-25T03:19:40;10.73;;;5.30;;
81908;SDS011;71372;43.514;1.512;2024-03-25T03:22:06;10.25;;;4.72;;
81908;SDS011;71372;43.514;1.512;2024-03-25T03:24:32;9.52;;;5.40;;
81908;SDS011;71372;43.514;1.512;2024-03-25T03:26:58;7.80;;;4.50;;
81908;SDS011;71372;43.514;1.512;2024-03-25T03:29:24;10.77;;;4.65;;
81908;SDS011;71372;43.514;1.512;2024-03-25T03:31:50;8.88;;;4.68;;
81908;SDS011;71372;43.514;1.512;2024-03-25T03:34:16;13.30;;;6.57;;
81908;SDS011;71372;43.514;1.512;2024-03-25T03:36:42;11.20;;;5.28;;
81908;SDS011;71372;43.514;1.512;2024-03-25T03:39:08;10.55;;;4.80;;
81908;SDS011;71372;43.514;1.512;2024-03-25T03:41:35;11.38;;;5.30;;
81908;SDS011;71372;43.514;1.512;2024-03-25T03:44:02;10.73;;;5.07;;
81908;SDS011;71372;43.514;1.512;2024-03-25T03:46:28;11.50;;;5.20;;
81908;SDS011;71372;43.514;1.512;2024-03-25T03:48:54;14.73;;;5.28;;
81908;SDS011;71372;43.514;1.512;2024-03-25T03:51:20;10.00;;;5.30;;
81908;SDS011;71372;43.514;1.512;2024-03-25T03:53:46;11.20;;;5.15;;
81908;SDS011;71372;43.514;1.512;2024-03-25T03:56:12;7.22;;;4.10;;
81908;SDS011;71372;43.514;1.512;2024-03-25T03:58:38;6.03;;;3.50;;
81908;SDS011;71372;43.514;1.512;2024-03-25T04:01:04;6.60;;;3.45;;
81908;SDS011;71372;43.514;1.512;2024-03-25T04:03:30;6.85;;;4.10;;
81908;SDS011;71372;43.514;1.512;2024-03-25T04:05:56;10.45;;;4.32;;
81908;SDS011;71372;43.514;1.512;2024-03-25T04:08:22;12.65;;;5.35;;
81908;SDS011;71372;43.514;1.512;2024-03-25T04:10:48;9.65;;;4.95;;
81908;SDS011;71372;43.514;1.512;2024-03-25T04:13:16;10.68;;;4.40;;
81908;SDS011;71372;43.514;1.512;2024-03-25T04:15:42;11.77;;;4.82;;
81908;SDS011;71372;43.514;1.512;2024-03-25T04:18:08;13.57;;;5.40;;
81908;SDS011;71372;43.514;1.512;2024-03-25T04:20:38;9.95;;;5.10;;
81908;SDS011;71372;43.514;1.512;2024-03-25T04:23:05;12.43;;;4.85;;
81908;SDS011;71372;43.514;1.512;2024-03-25T04:25:35;13.77;;;5.72;;
81908;SDS011;71372;43.514;1.512;2024-03-25T04:28:04;14.85;;;6.13;;
81908;SDS011;71372;43.514;1.512;2024-03-25T04:30:33;14.93;;;5.55;;
81908;SDS011;71372;43.514;1.512;2024-03-25T04:33:00;14.35;;;5.65;;
81908;SDS011;71372;43.514;1.512;2024-03-25T04:35:26;10.07;;;4.63;;
81908;SDS011;71372;43.514;1.512;2024-03-25T04:37:52;11.98;;;5.95;;
81908;SDS011;71372;43.514;1.512;2024-03-25T04:40:18;15.25;;;8.25;;
81908;SDS011;71372;43.514;1.512;2024-03-25T04:42:45;14.93;;;7.43;;
81908;SDS011;71372;43.514;1.512;2024-03-25T04:45:11;10.88;;;5.43;;
81908;SDS011;71372;43.514;1.512;2024-03-25T04:47:40;10.23;;;5.30;;
81908;SDS011;71372;43.514;1.512;2024-03-25T04:50:06;9.27;;;5.22;;
81908;SDS011;71372;43.514;1.512;2024-03-25T04:52:32;6.60;;;3.88;;
81908;SDS011;71372;43.514;1.512;2024-03-25T04:54:58;7.72;;;3.53;;
81908;SDS011;71372;43.514;1.512;2024-03-25T04:57:24;5.63;;;3.25;;
81908;SDS011;71372;43.514;1.512;2024-03-25T04:59:50;5.63;;;3.70;;
81908;SDS011;71372;43.514;1.512;2024-03-25T05:02:16;5.63;;;3.65;;
81908;SDS011;71372;43.514;1.512;2024-03-25T05:04:42;7.72;;;3.15;;
81908;SDS011;71372;43.514;1.512;2024-03-25T05:07:08;4.68;;;3.40;;
81908;SDS011;71372;43.514;1.512;2024-03-25T05:09:34;9.05;;;3.53;;
81908;SDS011;71372;43.514;1.512;2024-03-25T05:12:00;8.80;;;3.45;;
81908;SDS011;71372;43.514;1.512;2024-03-25T05:14:26;6.10;;;3.03;;
81908;SDS011;71372;43.514;1.512;2024-03-25T05:16:52;6.00;;;3.25;;
81908;SDS011;71372;43.514;1.512;2024-03-25T05:19:19;6.65;;;3.08;;
81908;SDS011;71372;43.514;1.512;2024-03-25T05:21:45;4.70;;;2.83;;
81908;SDS011;71372;43.514;1.512;2024-03-25T05:24:11;8.27;;;3.05;;
81908;SDS011;71372;43.514;1.512;2024-03-25T05:26:37;6.00;;;2.42;;
81908;SDS011;71372;43.514;1.512;2024-03-25T05:29:03;6.13;;;2.50;;
81908;SDS011;71372;43.514;1.512;2024-03-25T05:31:29;7.40;;;2.85;;
81908;SDS011;71372;43.514;1.512;2024-03-25T05:33:56;6.40;;;3.00;;
81908;SDS011;71372;43.514;1.512;2024-03-25T05:36:22;6.85;;;2.88;;
81908;SDS011;71372;43.514;1.512;2024-03-25T05:38:48;5.00;;;2.80;;
81908;SDS011;71372;43.514;1.512;2024-03-25T05:41:14;5.80;;;2.75;;
81908;SDS011;71372;43.514;1.512;2024-03-25T05:43:39;7.13;;;3.08;;
81908;SDS011;71372;43.514;1.512;2024-03-25T05:46:05;5.03;;;2.80;;
81908;SDS011;71372;43.514;1.512;2024-03-25T05:48:32;7.95;;;3.05;;
81908;SDS011;71372;43.514;1.512;2024-03-25T05:50:59;3.83;;;2.50;;
81908;SDS011;71372;43.514;1.512;2024-03-25T05:53:34;5.65;;;2.72;;
81908;SDS011;71372;43.514;1.512;2024-03-25T05:55:59;6.35;;;2.67;;
81908;SDS011;71372;43.514;1.512;2024-03-25T05:58:26;5.43;;;2.80;;
81908;SDS011;71372;43.514;1.512;2024-03-25T06:00:52;6.47;;;2.92;;
81908;SDS011;71372;43.514;1.512;2024-03-25T06:03:18;6.70;;;3.13;;
81908;SDS011;71372;43.514;1.512;2024-03-25T06:05:45;5.78;;;2.80;;
81908;SDS011;71372;43.514;1.512;2024-03-25T06:08:11;7.18;;;2.55;;
81908;SDS011;71372;43.514;1.512;2024-03-25T06:11:01;8.15;;;3.13;;
81908;SDS011;71372;43.514;1.512;2024-03-25T06:13:27;7.97;;;3.05;;
81908;SDS011;71372;43.514;1.512;2024-03-25T06:15:53;7.25;;;2.63;;
81908;SDS011;71372;43.514;1.512;2024-03-25T06:18:19;4.47;;;2.22;;
81908;SDS011;71372;43.514;1.512;2024-03-25T06:20:45;6.55;;;2.55;;
81908;SDS011;71372;43.514;1.512;2024-03-25T06:23:20;4.00;;;2.55;;
81908;SDS011;71372;43.514;1.512;2024-03-25T06:25:48;5.82;;;1.90;;
81908;SDS011;71372;43.514;1.512;2024-03-25T06:28:15;3.58;;;1.70;;
81908;SDS011;71372;43.514;1.512;2024-03-25T06:30:41;6.88;;;2.33;;
81908;SDS011;71372;43.514;1.512;2024-03-25T06:33:25;3.25;;;1.55;;
81908;SDS011;71372;43.514;1.512;2024-03-25T06:36:09;3.47;;;1.42;;
81908;SDS011;71372;43.514;1.512;2024-03-25T06:38:35;5.43;;;1.90;;
81908;SDS011;71372;43.514;1.512;2024-03-25T06:41:01;4.35;;;1.70;;
81908;SDS011;71372;43.514;1.512;2024-03-25T06:43:27;3.33;;;1.60;;
81908;SDS011;71372;43.514;1.512;2024-03-25T06:45:53;4.65;;;1.50;;
81908;SDS011;71372;43.514;1.512;2024-03-25T06:48:19;6.22;;;1.48;;
81908;SDS011;71372;43.514;1.512;2024-03-25T06:53:21;4.68;;;1.80;;
81908;SDS011;71372;43.514;1.512;2024-03-25T06:55:50;3.15;;;1.33;;
81908;SDS011;71372;43.514;1.512;2024-03-25T06:58:20;5.22;;;1.92;;
81908;SDS011;71372;43.514;1.512;2024-03-25T07:00:47;3.83;;;1.80;;
81908;SDS011;71372;43.514;1.512;2024-03-25T07:03:17;6.45;;;1.80;;
81908;SDS011;71372;43.514;1.512;2024-03-25T07:05:46;5.65;;;1.80;;
81908;SDS011;71372;43.514;1.512;2024-03-25T07:08:13;6.35;;;1.60;;
81908;SDS011;71372;43.514;1.512;2024-03-25T07:10:43;3.40;;;1.27;;
81908;SDS011;71372;43.514;1.512;2024-03-25T07:13:09;1.50;;;1.02;;
81908;SDS011;71372;43.514;1.512;2024-03-25T07:15:35;1.73;;;1.08;;
81908;SDS011;71372;43.514;1.512;2024-03-25T07:18:01;3.97;;;1.30;;
81908;SDS011;71372;43.514;1.512;2024-03-25T07:20:29;2.10;;;1.08;;
81908;SDS011;71372;43.514;1.512;2024-03-25T07:22:56;4.88;;;1.45;;
81908;SDS011;71372;43.514;1.512;2024-03-25T07:25:22;2.15;;;1.23;;
81908;SDS011;71372;43.514;1.512;2024-03-25T07:27:49;5.85;;;1.25;;
81908;SDS011;71372;43.514;1.512;2024-03-25T07:30:15;3.90;;;1.13;;
81908;SDS011;71372;43.514;1.512;2024-03-25T07:32:41;3.95;;;1.45;;
81908;SDS011;71372;43.514;1.512;2024-03-25T07:35:08;4.72;;;1.20;;
81908;SDS011;71372;43.514;1.512;2024-03-25T07:37:35;1.38;;;1.02;;
81908;SDS011;71372;43.514;1.512;2024-03-25T07:40:01;4.95;;;1.10;;
81908;SDS011;71372;43.514;1.512;2024-03-25T07:42:27;2.15;;;1.00;;
81908;SDS011;71372;43.514;1.512;2024-03-25T07:44:53;4.00;;;0.70;;
81908;SDS011;71372;43.514;1.512;2024-03-25T07:47:19;2.67;;;0.80;;
81908;SDS011;71372;43.514;1.512;2024-03-25T07:49:44;3.35;;;0.88;;
81908;SDS011;71372;43.514;1.512;2024-03-25T07:52:10;3.78;;;0.90;;
81908;SDS011;71372;43.514;1.512;2024-03-25T07:54:36;2.60;;;0.70;;
81908;SDS011;71372;43.514;1.512;2024-03-25T07:57:03;2.28;;;0.82;;
81908;SDS011;71372;43.514;1.512;2024-03-25T07:59:30;1.52;;;0.63;;
81908;SDS011;71372;43.514;1.512;2024-03-25T08:01:56;3.38;;;1.02;;
81908;SDS011;71372;43.514;1.512;2024-03-25T08:04:22;2.80;;;0.60;;
81908;SDS011;71372;43.514;1.512;2024-03-25T08:06:48;1.48;;;0.68;;
81908;SDS011;71372;43.514;1.512;2024-03-25T08:09:14;4.28;;;0.60;;
81908;SDS011;71372;43.514;1.512;2024-03-25T08:11:42;3.40;;;0.57;;
81908;SDS011;71372;43.514;1.512;2024-03-25T08:14:11;4.25;;;0.75;;
81908;SDS011;71372;43.514;1.512;2024-03-25T08:16:37;1.67;;;1.15;;
81908;SDS011;71372;43.514;1.512;2024-03-25T08:19:04;4.57;;;0.90;;
81908;SDS011;71372;43.514;1.512;2024-03-25T08:21:30;6.05;;;0.73;;
81908;SDS011;71372;43.514;1.512;2024-03-25T08:23:55;1.98;;;0.55;;
81908;SDS011;71372;43.514;1.512;2024-03-25T08:26:21;2.38;;;0.60;;
81908;SDS011;71372;43.514;1.512;2024-03-25T08:28:47;1.42;;;0.50;;
81908;SDS011;71372;43.514;1.512;2024-03-25T08:31:15;3.83;;;0.80;;
81908;SDS011;71372;43.514;1.512;2024-03-25T08:33:41;2.00;;;0.60;;
81908;SDS011;71372;43.514;1.512;2024-03-25T08:36:07;3.88;;;0.65;;
81908;SDS011;71372;43.514;1.512;2024-03-25T08:38:33;4.05;;;0.68;;
81908;SDS011;71372;43.514;1.512;2024-03-25T08:41:00;2.60;;;0.70;;
81908;SDS011;71372;43.514;1.512;2024-03-25T08:43:25;1.70;;;0.40;;
81908;SDS011;71372;43.514;1.512;2024-03-25T08:45:51;2.53;;;0.50;;
81908;SDS011;71372;43.514;1.512;2024-03-25T08:48:17;2.17;;;0.43;;
81908;SDS011;71372;43.514;1.512;2024-03-25T08:50:43;1.30;;;0.40;;
81908;SDS011;71372;43.514;1.512;2024-03-25T08:53:09;3.85;;;0.77;;
81908;SDS011;71372;43.514;1.512;2024-03-25T08:55:35;2.83;;;0.57;;
81908;SDS011;71372;43.514;1.512;2024-03-25T08:58:01;3.45;;;0.60;;
81908;SDS011;71372;43.514;1.512;2024-03-25T09:00:27;2.13;;;0.40;;
81908;SDS011;71372;43.514;1.512;2024-03-25T09:02:53;2.33;;;0.47;;
81908;SDS011;71372;43.514;1.512;2024-03-25T09:05:20;3.88;;;0.88;;
81908;SDS011;71372;43.514;1.512;2024-03-25T09:07:49;3.15;;;0.60;;
81908;SDS011;71372;43.514;1.512;2024-03-25T09:10:17;1.90;;;0.60;;
81908;SDS011;71372;43.514;1.512;2024-03-25T09:13:02;2.22;;;0.50;;
81908;SDS011;71372;43.514;1.512;2024-03-25T09:15:29;3.13;;;0.47;;
81908;SDS011;71372;43.514;1.512;2024-03-25T09:17:55;1.83;;;0.60;;
81908;SDS011;71372;43.514;1.512;2024-03-25T09:20:22;1.02;;;0.65;;
81908;SDS011;71372;43.514;1.512;2024-03-25T09:22:48;2.05;;;0.30;;
81908;SDS011;71372;43.514;1.512;2024-03-25T09:25:15;1.38;;;0.40;;
81908;SDS011;71372;43.514;1.512;2024-03-25T09:27:45;2.67;;;1.05;;
81908;SDS011;71372;43.514;1.512;2024-03-25T09:30:11;3.08;;;0.60;;
81908;SDS011;71372;43.514;1.512;2024-03-25T09:32:37;7.97;;;0.70;;
81908;SDS011;71372;43.514;1.512;2024-03-25T09:35:04;2.83;;;0.50;;
81908;SDS011;71372;43.514;1.512;2024-03-25T09:37:30;2.78;;;0.45;;
81908;SDS011;71372;43.514;1.512;2024-03-25T09:39:57;1.00;;;0.35;;
81908;SDS011;71372;43.514;1.512;2024-03-25T09:42:25;2.55;;;0.60;;
81908;SDS011;71372;43.514;1.512;2024-03-25T09:44:56;3.10;;;0.70;;
81908;SDS011;71372;43.514;1.512;2024-03-25T09:47:22;4.53;;;0.68;;
81908;SDS011;71372;43.514;1.512;2024-03-25T09:49:49;2.85;;;0.63;;
81908;SDS011;71372;43.514;1.512;2024-03-25T09:52:17;3.15;;;0.60;;
81908;SDS011;71372;43.514;1.512;2024-03-25T09:54:44;2.13;;;0.50;;
81908;SDS011;71372;43.514;1.512;2024-03-25T09:57:10;2.38;;;0.43;;
81908;SDS011;71372;43.514;1.512;2024-03-25T09:59:37;3.72;;;0.75;;
81908;SDS011;71372;43.514;1.512;2024-03-25T10:02:04;1.77;;;0.60;;
81908;SDS011;71372;43.514;1.512;2024-03-25T10:04:32;1.75;;;0.55;;
81908;SDS011;71372;43.514;1.512;2024-03-25T10:06:58;3.38;;;0.60;;
81908;SDS011;71372;43.514;1.512;2024-03-25T10:09:24;2.10;;;0.90;;
81908;SDS011;71372;43.514;1.512;2024-03-25T10:11:51;5.15;;;0.80;;
81908;SDS011;71372;43.514;1.512;2024-03-25T10:14:17;2.30;;;0.63;;
81908;SDS011;71372;43.514;1.512;2024-03-25T10:16:48;3.70;;;0.70;;
81908;SDS011;71372;43.514;1.512;2024-03-25T10:19:14;3.22;;;0.60;;
81908;SDS011;71372;43.514;1.512;2024-03-25T10:21:40;3.25;;;0.70;;
81908;SDS011;71372;43.514;1.512;2024-03-25T10:24:06;2.60;;;0.82;;
81908;SDS011;71372;43.514;1.512;2024-03-25T10:26:33;2.50;;;0.95;;
81908;SDS011;71372;43.514;1.512;2024-03-25T10:29:04;1.63;;;0.50;;
81908;SDS011;71372;43.514;1.512;2024-03-25T10:31:36;5.05;;;0.65;;
81908;SDS011;71372;43.514;1.512;2024-03-25T10:34:02;1.90;;;0.40;;
81908;SDS011;71372;43.514;1.512;2024-03-25T10:36:28;2.42;;;0.60;;
81908;SDS011;71372;43.514;1.512;2024-03-25T10:38:56;2.08;;;0.60;;
81908;SDS011;71372;43.514;1.512;2024-03-25T10:41:23;6.28;;;0.52;;
81908;SDS011;71372;43.514;1.512;2024-03-25T10:43:51;3.00;;;0.60;;
81908;SDS011;71372;43.514;1.512;2024-03-25T10:46:19;8.05;;;1.40;;
81908;SDS011;71372;43.514;1.512;2024-03-25T10:49:34;1.50;;;0.50;;
81908;SDS011;71372;43.514;1.512;2024-03-25T10:51:49;2.45;;;0.40;;
81908;SDS011;71372;43.514;1.512;2024-03-25T10:54:16;1.48;;;0.50;;
81908;SDS011;71372;43.514;1.512;2024-03-25T10:56:43;2.53;;;0.50;;
81908;SDS011;71372;43.514;1.512;2024-03-25T10:59:10;2.28;;;0.30;;
81908;SDS011;71372;43.514;1.512;2024-03-25T11:01:38;3.25;;;0.52;;
81908;SDS011;71372;43.514;1.512;2024-03-25T11:04:04;4.28;;;0.50;;
81908;SDS011;71372;43.514;1.512;2024-03-25T11:06:33;5.90;;;0.75;;
81908;SDS011;71372;43.514;1.512;2024-03-25T11:08:59;1.25;;;0.50;;
81908;SDS011;71372;43.514;1.512;2024-03-25T11:11:32;3.47;;;0.60;;
81908;SDS011;71372;43.514;1.512;2024-03-25T11:14:04;4.93;;;0.80;;
81908;SDS011;71372;43.514;1.512;2024-03-25T11:16:32;4.10;;;0.70;;
81908;SDS011;71372;43.514;1.512;2024-03-25T11:19:02;3.85;;;0.68;;
81908;SDS011;71372;43.514;1.512;2024-03-25T11:21:28;4.15;;;0.68;;
81908;SDS011;71372;43.514;1.512;2024-03-25T11:23:54;1.48;;;0.65;;
81908;SDS011;71372;43.514;1.512;2024-03-25T11:26:21;4.88;;;0.70;;
81908;SDS011;71372;43.514;1.512;2024-03-25T11:28:50;1.98;;;0.57;;
81908;SDS011;71372;43.514;1.512;2024-03-25T11:31:16;3.75;;;0.70;;
81908;SDS011;71372;43.514;1.512;2024-03-25T11:33:42;4.38;;;0.80;;
81908;SDS011;71372;43.514;1.512;2024-03-25T11:36:09;3.10;;;0.70;;
81908;SDS011;71372;43.514;1.512;2024-03-25T11:38:35;2.42;;;0.80;;
81908;SDS011;71372;43.514;1.512;2024-03-25T11:41:04;4.53;;;0.70;;
81908;SDS011;71372;43.514;1.512;2024-03-25T11:43:30;2.63;;;0.70;;
81908;SDS011;71372;43.514;1.512;2024-03-25T11:45:58;3.58;;;0.80;;
81908;SDS011;71372;43.514;1.512;2024-03-25T11:48:24;5.85;;;0.85;;
81908;SDS011;71372;43.514;1.512;2024-03-25T11:50:50;5.80;;;0.80;;
81908;SDS011;71372;43.514;1.512;2024-03-25T11:53:16;2.40;;;0.70;;
81908;SDS011;71372;43.514;1.512;2024-03-25T11:55:45;5.13;;;0.82;;
81908;SDS011;71372;43.514;1.512;2024-03-25T11:58:14;4.03;;;0.82;;
81908;SDS011;71372;43.514;1.512;2024-03-25T12:00:44;2.70;;;0.70;;
81908;SDS011;71372;43.514;1.512;2024-03-25T12:03:13;3.95;;;0.60;;
81908;SDS011;71372;43.514;1.512;2024-03-25T12:05:40;4.03;;;0.80;;
81908;SDS011;71372;43.514;1.512;2024-03-25T12:08:09;5.90;;;0.90;;
81908;SDS011;71372;43.514;1.512;2024-03-25T12:10:36;6.18;;;1.27;;
81908;SDS011;71372;43.514;1.512;2024-03-25T12:13:21;4.65;;;0.82;;
81908;SDS011;71372;43.514;1.512;2024-03-25T12:15:47;4.07;;;0.70;;
81908;SDS011;71372;43.514;1.512;2024-03-25T12:18:14;1.98;;;0.93;;
81908;SDS011;71372;43.514;1.512;2024-03-25T12:20:41;2.92;;;0.60;;
81908;SDS011;71372;43.514;1.512;2024-03-25T12:23:07;1.95;;;0.70;;
81908;SDS011;71372;43.514;1.512;2024-03-25T12:25:33;2.42;;;0.77;;
81908;SDS011;71372;43.514;1.512;2024-03-25T12:28:00;4.13;;;0.90;;
81908;SDS011;71372;43.514;1.512;2024-03-25T12:30:26;4.40;;;1.10;;
81908;SDS011;71372;43.514;1.512;2024-03-25T12:32:52;2.22;;;0.70;;
81908;SDS011;71372;43.514;1.512;2024-03-25T12:35:20;4.43;;;0.70;;
81908;SDS011;71372;43.514;1.512;2024-03-25T12:37:46;4.40;;;0.65;;
81908;SDS011;71372;43.514;1.512;2024-03-25T12:40:26;2.75;;;0.80;;
81908;SDS011;71372;43.514;1.512;2024-03-25T12:42:53;2.88;;;0.65;;
81908;SDS011;71372;43.514;1.512;2024-03-25T12:45:19;2.92;;;0.85;;
81908;SDS011;71372;43.514;1.512;2024-03-25T12:47:46;2.78;;;0.80;;
81908;SDS011;71372;43.514;1.512;2024-03-25T12:50:12;6.22;;;1.13;;
81908;SDS011;71372;43.514;1.512;2024-03-25T12:52:38;3.03;;;1.15;;
81908;SDS011;71372;43.514;1.512;2024-03-25T12:55:04;3.55;;;1.35;;
81908;SDS011;71372;43.514;1.512;2024-03-25T12:57:30;4.05;;;1.42;;
81908;SDS011;71372;43.514;1.512;2024-03-25T12:59:56;7.20;;;1.17;;
81908;SDS011;71372;43.514;1.512;2024-03-25T13:02:22;5.65;;;0.90;;
81908;SDS011;71372;43.514;1.512;2024-03-25T13:04:48;5.80;;;1.20;;
81908;SDS011;71372;43.514;1.512;2024-03-25T13:07:14;7.85;;;0.93;;
81908;SDS011;71372;43.514;1.512;2024-03-25T13:09:40;5.28;;;1.05;;
81908;SDS011;71372;43.514;1.512;2024-03-25T13:12:06;5.88;;;1.20;;
81908;SDS011;71372;43.514;1.512;2024-03-25T13:14:32;6.70;;;1.20;;
81908;SDS011;71372;43.514;1.512;2024-03-25T13:16:58;8.60;;;1.42;;
81908;SDS011;71372;43.514;1.512;2024-03-25T13:19:24;4.85;;;1.15;;
81908;SDS011;71372;43.514;1.512;2024-03-25T13:21:55;4.78;;;0.90;;
81908;SDS011;71372;43.514;1.512;2024-03-25T13:26:47;3.55;;;0.70;;
81908;SDS011;71372;43.514;1.512;2024-03-25T13:29:12;4.32;;;0.93;;
81908;SDS011;71372;43.514;1.512;2024-03-25T13:31:38;5.03;;;0.80;;
81908;SDS011;71372;43.514;1.512;2024-03-25T13:34:04;5.70;;;1.33;;
81908;SDS011;71372;43.514;1.512;2024-03-25T13:36:31;4.18;;;0.80;;
81908;SDS011;71372;43.514;1.512;2024-03-25T13:38:57;5.53;;;0.75;;
81908;SDS011;71372;43.514;1.512;2024-03-25T13:41:23;4.82;;;0.80;;
81908;SDS011;71372;43.514;1.512;2024-03-25T13:43:50;3.33;;;0.80;;
81908;SDS011;71372;43.514;1.512;2024-03-25T13:46:16;2.42;;;0.50;;
81908;SDS011;71372;43.514;1.512;2024-03-25T13:48:42;4.85;;;0.80;;
81908;SDS011;71372;43.514;1.512;2024-03-25T13:51:08;4.32;;;1.13;;
81908;SDS011;71372;43.514;1.512;2024-03-25T13:53:34;2.55;;;0.65;;
81908;SDS011;71372;43.514;1.512;2024-03-25T13:56:00;3.45;;;0.80;;
81908;SDS011;71372;43.514;1.512;2024-03-25T13:58:26;3.55;;;0.80;;
81908;SDS011;71372;43.514;1.512;2024-03-25T14:00:52;4.45;;;0.82;;
81908;SDS011;71372;43.514;1.512;2024-03-25T14:03:20;7.20;;;0.85;;
81908;SDS011;71372;43.514;1.512;2024-03-25T14:05:46;2.25;;;0.68;;
81908;SDS011;71372;43.514;1.512;2024-03-25T14:08:12;3.53;;;0.68;;
81908;SDS011;71372;43.514;1.512;2024-03-25T14:10:38;2.60;;;0.75;;
81908;SDS011;71372;43.514;1.512;2024-03-25T14:13:04;3.15;;;0.80;;
81908;SDS011;71372;43.514;1.512;2024-03-25T14:15:32;5.32;;;0.75;;
81908;SDS011;71372;43.514;1.512;2024-03-25T14:17:58;2.78;;;1.10;;
81908;SDS011;71372;43.514;1.512;2024-03-25T14:20:23;4.57;;;0.90;;
81908;SDS011;71372;43.514;1.512;2024-03-25T14:22:49;2.53;;;0.70;;
81908;SDS011;71372;43.514;1.512;2024-03-25T14:25:15;3.50;;;0.70;;
81908;SDS011;71372;43.514;1.512;2024-03-25T14:27:41;4.30;;;0.82;;
81908;SDS011;71372;43.514;1.512;2024-03-25T14:30:07;4.70;;;0.82;;
81908;SDS011;71372;43.514;1.512;2024-03-25T14:32:36;9.10;;;0.90;;
81908;SDS011;71372;43.514;1.512;2024-03-25T14:35:04;4.72;;;0.80;;
81908;SDS011;71372;43.514;1.512;2024-03-25T14:37:34;3.63;;;0.85;;
81908;SDS011;71372;43.514;1.512;2024-03-25T14:40:00;4.30;;;0.60;;
81908;SDS011;71372;43.514;1.512;2024-03-25T14:42:26;3.75;;;0.68;;
81908;SDS011;71372;43.514;1.512;2024-03-25T14:44:52;5.85;;;1.00;;
81908;SDS011;71372;43.514;1.512;2024-03-25T14:47:18;7.65;;;1.30;;
81908;SDS011;71372;43.514;1.512;2024-03-25T14:49:44;5.53;;;0.65;;